sensor_id;sensor_type;location;lat;lon;timestamp;P1;durP1;ratioP1;P2;durP2;ratioP2
71343;SDS011;59146;43.850;25.948;2023-06-22T00:01:03;13.27;;;10.10;;
71343;SDS011;59146;43.850;25.948;2023-06-22T00:03:29;14.00;;;10.88;;
71343;SDS011;59146;43.850;25.948;2023-06-22T00:05:54;11.93;;;10.70;;
71343;SDS011;59146;43.850;25.948;2023-06-22T00:08:20;13.30;;;11.02;;
71343;SDS011;59146;43.850;25.948;2023-06-22T00:10:45;15.02;;;11.35;;
71343;SDS011;59146;43.850;25.948;2023-06-22T00:13:11;12.73;;;10.35;;
71343;SDS011;59146;43.850;25.948;2023-06-22T00:15:38;16.15;;;11.77;;
71343;SDS011;59146;43.850;25.948;2023-06-22T00:18:06;17.17;;;12.25;;
71343;SDS011;59146;43.850;25.948;2023-06-22T00:20:32;15.38;;;11.32;;
71343;SDS011;59146;43.850;25.948;2023-06-22T00:23:02;14.23;;;11.93;;
71343;SDS011;59146;43.850;25.948;2023-06-22T00:25:33;16.40;;;11.45;;
71343;SDS011;59146;43.850;25.948;2023-06-22T00:28:00;14.70;;;11.63;;
71343;SDS011;59146;43.850;25.948;2023-06-22T00:30:26;18.30;;;11.52;;
71343;SDS011;59146;43.850;25.948;2023-06-22T00:32:51;16.65;;;13.02;;
71343;SDS011;59146;43.850;25.948;2023-06-22T00:35:17;15.98;;;13.70;;
71343;SDS011;59146;43.850;25.948;2023-06-22T00:37:42;17.67;;;13.45;;
71343;SDS011;59146;43.850;25.948;2023-06-22T00:40:08;19.05;;;15.23;;
71343;SDS011;59146;43.850;25.948;2023-06-22T00:42:39;20.50;;;15.35;;
71343;SDS011;59146;43.850;25.948;2023-06-22T00:45:06;18.70;;;14.05;;
71343;SDS011;59146;43.850;25.948;2023-06-22T00:47:32;24.83;;;14.85;;
71343;SDS011;59146;43.850;25.948;2023-06-22T00:49:59;16.05;;;14.25;;
71343;SDS011;59146;43.850;25.948;2023-06-22T00:52:25;15.30;;;13.18;;
71343;SDS011;59146;43.850;25.948;2023-06-22T00:54:54;16.30;;;13.57;;
71343;SDS011;59146;43.850;25.948;2023-06-22T00:57:21;17.20;;;14.65;;
71343;SDS011;59146;43.850;25.948;2023-06-22T00:59:53;20.10;;;13.75;;
71343;SDS011;59146;43.850;25.948;2023-06-22T01:02:19;22.08;;;14.60;;
71343;SDS011;59146;43.850;25.948;2023-06-22T01:04:44;24.33;;;15.73;;
71343;SDS011;59146;43.850;25.948;2023-06-22T01:10:25;19.70;;;14.73;;
71343;SDS011;59146;43.850;25.948;2023-06-22T01:13:04;18.65;;;15.00;;
71343;SDS011;59146;43.850;25.948;2023-06-22T01:15:44;17.48;;;14.75;;
71343;SDS011;59146;43.850;25.948;2023-06-22T01:18:14;26.20;;;15.48;;
71343;SDS011;59146;43.850;25.948;2023-06-22T01:20:43;21.23;;;16.33;;
71343;SDS011;59146;43.850;25.948;2023-06-22T01:28:50;22.42;;;15.85;;
71343;SDS011;59146;43.850;25.948;2023-06-22T01:31:20;24.30;;;16.95;;
71343;SDS011;59146;43.850;25.948;2023-06-22T01:33:52;19.60;;;15.80;;
71343;SDS011;59146;43.850;25.948;2023-06-22T01:36:20;31.05;;;16.38;;
71343;SDS011;59146;43.850;25.948;2023-06-22T01:38:47;21.83;;;16.58;;
71343;SDS011;59146;43.850;25.948;2023-06-22T01:41:14;29.38;;;17.38;;
71343;SDS011;59146;43.850;25.948;2023-06-22T01:43:41;22.55;;;16.60;;
71343;SDS011;59146;43.850;25.948;2023-06-22T01:46:07;21.83;;;16.75;;
71343;SDS011;59146;43.850;25.948;2023-06-22T01:48:33;25.65;;;16.77;;
71343;SDS011;59146;43.850;25.948;2023-06-22T01:50:59;21.17;;;18.08;;
71343;SDS011;59146;43.850;25.948;2023-06-22T01:53:25;23.02;;;18.25;;
71343;SDS011;59146;43.850;25.948;2023-06-22T01:55:50;22.73;;;18.25;;
71343;SDS011;59146;43.850;25.948;2023-06-22T01:58:16;25.67;;;17.52;;
71343;SDS011;59146;43.850;25.948;2023-06-22T02:00:44;27.70;;;18.20;;
71343;SDS011;59146;43.850;25.948;2023-06-22T02:03:19;21.80;;;17.52;;
71343;SDS011;59146;43.850;25.948;2023-06-22T02:05:49;24.23;;;17.40;;
71343;SDS011;59146;43.850;25.948;2023-06-22T02:08:19;19.50;;;17.00;;
71343;SDS011;59146;43.850;25.948;2023-06-22T02:10:48;25.67;;;16.27;;
71343;SDS011;59146;43.850;25.948;2023-06-22T02:13:14;19.52;;;15.23;;
71343;SDS011;59146;43.850;25.948;2023-06-22T02:15:40;22.58;;;16.75;;
71343;SDS011;59146;43.850;25.948;2023-06-22T02:18:07;21.77;;;16.25;;
71343;SDS011;59146;43.850;25.948;2023-06-22T02:20:32;24.17;;;15.50;;
71343;SDS011;59146;43.850;25.948;2023-06-22T02:23:01;22.23;;;17.50;;
71343;SDS011;59146;43.850;25.948;2023-06-22T02:25:26;24.02;;;17.83;;
71343;SDS011;59146;43.850;25.948;2023-06-22T02:27:51;24.02;;;18.98;;
71343;SDS011;59146;43.850;25.948;2023-06-22T02:30:17;21.48;;;17.75;;
71343;SDS011;59146;43.850;25.948;2023-06-22T02:32:43;26.08;;;17.73;;
71343;SDS011;59146;43.850;25.948;2023-06-22T02:35:08;29.05;;;17.15;;
71343;SDS011;59146;43.850;25.948;2023-06-22T02:37:37;21.92;;;15.50;;
71343;SDS011;59146;43.850;25.948;2023-06-22T02:40:09;22.67;;;16.30;;
71343;SDS011;59146;43.850;25.948;2023-06-22T02:42:35;22.05;;;16.65;;
71343;SDS011;59146;43.850;25.948;2023-06-22T02:45:01;18.90;;;16.08;;
71343;SDS011;59146;43.850;25.948;2023-06-22T02:47:27;20.70;;;15.48;;
71343;SDS011;59146;43.850;25.948;2023-06-22T02:49:52;18.48;;;15.50;;
71343;SDS011;59146;43.850;25.948;2023-06-22T02:52:18;22.33;;;16.50;;
71343;SDS011;59146;43.850;25.948;2023-06-22T02:54:43;28.85;;;16.17;;
71343;SDS011;59146;43.850;25.948;2023-06-22T02:57:11;22.13;;;16.88;;
71343;SDS011;59146;43.850;25.948;2023-06-22T02:59:40;28.73;;;16.00;;
71343;SDS011;59146;43.850;25.948;2023-06-22T03:02:07;25.15;;;17.08;;
71343;SDS011;59146;43.850;25.948;2023-06-22T03:04:34;18.95;;;15.30;;
71343;SDS011;59146;43.850;25.948;2023-06-22T03:06:59;20.30;;;15.45;;
71343;SDS011;59146;43.850;25.948;2023-06-22T03:09:26;21.90;;;16.40;;
71343;SDS011;59146;43.850;25.948;2023-06-22T03:11:53;27.77;;;16.48;;
71343;SDS011;59146;43.850;25.948;2023-06-22T03:14:18;20.48;;;15.18;;
71343;SDS011;59146;43.850;25.948;2023-06-22T03:16:44;23.50;;;14.80;;
71343;SDS011;59146;43.850;25.948;2023-06-22T03:19:09;20.85;;;15.75;;
71343;SDS011;59146;43.850;25.948;2023-06-22T03:21:37;20.08;;;14.65;;
71343;SDS011;59146;43.850;25.948;2023-06-22T03:24:04;19.58;;;14.23;;
71343;SDS011;59146;43.850;25.948;2023-06-22T03:26:30;22.40;;;15.13;;
71343;SDS011;59146;43.850;25.948;2023-06-22T03:28:55;16.98;;;14.32;;
71343;SDS011;59146;43.850;25.948;2023-06-22T03:31:21;17.25;;;14.13;;
71343;SDS011;59146;43.850;25.948;2023-06-22T03:33:47;18.00;;;13.73;;
71343;SDS011;59146;43.850;25.948;2023-06-22T03:36:14;18.08;;;12.68;;
71343;SDS011;59146;43.850;25.948;2023-06-22T03:38:43;14.98;;;12.25;;
71343;SDS011;59146;43.850;25.948;2023-06-22T03:41:10;22.15;;;12.95;;
71343;SDS011;59146;43.850;25.948;2023-06-22T03:43:36;16.33;;;12.63;;
71343;SDS011;59146;43.850;25.948;2023-06-22T03:46:01;19.88;;;13.68;;
71343;SDS011;59146;43.850;25.948;2023-06-22T03:48:27;16.48;;;12.88;;
71343;SDS011;59146;43.850;25.948;2023-06-22T03:50:52;17.38;;;12.30;;
71343;SDS011;59146;43.850;25.948;2023-06-22T03:53:17;23.27;;;13.70;;
71343;SDS011;59146;43.850;25.948;2023-06-22T03:55:50;15.60;;;12.18;;
71343;SDS011;59146;43.850;25.948;2023-06-22T03:58:16;19.25;;;14.48;;
71343;SDS011;59146;43.850;25.948;2023-06-22T04:00:49;15.13;;;12.57;;
71343;SDS011;59146;43.850;25.948;2023-06-22T04:03:16;29.05;;;13.50;;
71343;SDS011;59146;43.850;25.948;2023-06-22T04:05:45;17.40;;;13.05;;
71343;SDS011;59146;43.850;25.948;2023-06-22T04:08:11;15.80;;;13.38;;
71343;SDS011;59146;43.850;25.948;2023-06-22T04:10:38;20.27;;;12.20;;
71343;SDS011;59146;43.850;25.948;2023-06-22T04:13:03;19.88;;;13.77;;
71343;SDS011;59146;43.850;25.948;2023-06-22T04:15:29;22.52;;;13.82;;
71343;SDS011;59146;43.850;25.948;2023-06-22T04:17:55;17.67;;;14.13;;
71343;SDS011;59146;43.850;25.948;2023-06-22T04:20:21;19.60;;;13.85;;
71343;SDS011;59146;43.850;25.948;2023-06-22T04:22:46;22.10;;;14.52;;
71343;SDS011;59146;43.850;25.948;2023-06-22T04:25:12;27.17;;;14.52;;
71343;SDS011;59146;43.850;25.948;2023-06-22T04:27:37;27.00;;;15.65;;
71343;SDS011;59146;43.850;25.948;2023-06-22T04:30:05;28.23;;;15.23;;
71343;SDS011;59146;43.850;25.948;2023-06-22T04:32:32;27.13;;;15.88;;
71343;SDS011;59146;43.850;25.948;2023-06-22T04:34:58;25.75;;;15.70;;
71343;SDS011;59146;43.850;25.948;2023-06-22T04:37:25;23.48;;;14.93;;
71343;SDS011;59146;43.850;25.948;2023-06-22T04:39:51;32.65;;;15.70;;
71343;SDS011;59146;43.850;25.948;2023-06-22T04:42:17;24.65;;;15.15;;
71343;SDS011;59146;43.850;25.948;2023-06-22T04:44:42;27.15;;;13.20;;
71343;SDS011;59146;43.850;25.948;2023-06-22T04:47:08;25.30;;;12.90;;
71343;SDS011;59146;43.850;25.948;2023-06-22T04:49:34;25.50;;;13.75;;
71343;SDS011;59146;43.850;25.948;2023-06-22T04:52:09;18.30;;;14.07;;
71343;SDS011;59146;43.850;25.948;2023-06-22T04:54:36;22.30;;;13.25;;
71343;SDS011;59146;43.850;25.948;2023-06-22T04:57:04;26.17;;;14.88;;
71343;SDS011;59146;43.850;25.948;2023-06-22T04:59:35;16.50;;;13.35;;
71343;SDS011;59146;43.850;25.948;2023-06-22T05:02:01;24.70;;;13.07;;
71343;SDS011;59146;43.850;25.948;2023-06-22T05:04:28;28.40;;;14.13;;
71343;SDS011;59146;43.850;25.948;2023-06-22T05:06:58;17.88;;;13.15;;
71343;SDS011;59146;43.850;25.948;2023-06-22T05:09:25;23.73;;;14.32;;
71343;SDS011;59146;43.850;25.948;2023-06-22T05:11:51;19.92;;;13.35;;
71343;SDS011;59146;43.850;25.948;2023-06-22T05:14:16;18.17;;;11.88;;
71343;SDS011;59146;43.850;25.948;2023-06-22T05:16:43;20.85;;;13.30;;
71343;SDS011;59146;43.850;25.948;2023-06-22T05:19:09;19.10;;;12.15;;
71343;SDS011;59146;43.850;25.948;2023-06-22T05:21:35;15.02;;;11.18;;
71343;SDS011;59146;43.850;25.948;2023-06-22T05:24:01;19.23;;;11.95;;
71343;SDS011;59146;43.850;25.948;2023-06-22T05:26:31;21.23;;;12.60;;
71343;SDS011;59146;43.850;25.948;2023-06-22T05:28:59;21.42;;;12.10;;
71343;SDS011;59146;43.850;25.948;2023-06-22T05:31:26;20.02;;;12.27;;
71343;SDS011;59146;43.850;25.948;2023-06-22T05:33:52;12.18;;;9.95;;
71343;SDS011;59146;43.850;25.948;2023-06-22T05:36:19;20.33;;;11.70;;
71343;SDS011;59146;43.850;25.948;2023-06-22T05:38:46;14.70;;;9.63;;
71343;SDS011;59146;43.850;25.948;2023-06-22T05:41:12;10.80;;;9.63;;
71343;SDS011;59146;43.850;25.948;2023-06-22T05:43:37;12.50;;;9.20;;
71343;SDS011;59146;43.850;25.948;2023-06-22T05:46:03;17.48;;;9.07;;
71343;SDS011;59146;43.850;25.948;2023-06-22T05:48:29;14.82;;;8.93;;
71343;SDS011;59146;43.850;25.948;2023-06-22T05:50:54;11.43;;;8.38;;
71343;SDS011;59146;43.850;25.948;2023-06-22T05:53:20;13.48;;;8.18;;
71343;SDS011;59146;43.850;25.948;2023-06-22T05:55:45;10.23;;;7.80;;
71343;SDS011;59146;43.850;25.948;2023-06-22T05:58:11;10.43;;;8.68;;
71343;SDS011;59146;43.850;25.948;2023-06-22T06:00:38;14.68;;;7.95;;
71343;SDS011;59146;43.850;25.948;2023-06-22T06:03:05;9.30;;;8.30;;
71343;SDS011;59146;43.850;25.948;2023-06-22T06:05:32;9.98;;;8.25;;
71343;SDS011;59146;43.850;25.948;2023-06-22T06:07:59;15.75;;;7.88;;
71343;SDS011;59146;43.850;25.948;2023-06-22T06:10:25;10.05;;;7.63;;
71343;SDS011;59146;43.850;25.948;2023-06-22T06:12:51;14.50;;;10.23;;
71343;SDS011;59146;43.850;25.948;2023-06-22T06:15:16;11.35;;;8.35;;
71343;SDS011;59146;43.850;25.948;2023-06-22T06:17:48;10.43;;;8.93;;
71343;SDS011;59146;43.850;25.948;2023-06-22T06:20:15;10.07;;;8.88;;
71343;SDS011;59146;43.850;25.948;2023-06-22T06:25:10;12.40;;;8.50;;
71343;SDS011;59146;43.850;25.948;2023-06-22T06:27:47;21.45;;;10.88;;
71343;SDS011;59146;43.850;25.948;2023-06-22T06:30:14;10.25;;;8.85;;
71343;SDS011;59146;43.850;25.948;2023-06-22T06:32:41;19.08;;;10.73;;
71343;SDS011;59146;43.850;25.948;2023-06-22T06:35:07;9.48;;;8.57;;
71343;SDS011;59146;43.850;25.948;2023-06-22T06:37:37;9.23;;;7.85;;
71343;SDS011;59146;43.850;25.948;2023-06-22T06:40:05;14.13;;;10.82;;
71343;SDS011;59146;43.850;25.948;2023-06-22T06:42:38;17.20;;;11.50;;
71343;SDS011;59146;43.850;25.948;2023-06-22T06:45:09;16.05;;;11.45;;
71343;SDS011;59146;43.850;25.948;2023-06-22T06:47:40;13.68;;;10.18;;
71343;SDS011;59146;43.850;25.948;2023-06-22T06:50:06;15.65;;;9.15;;
71343;SDS011;59146;43.850;25.948;2023-06-22T06:52:32;11.98;;;8.60;;
71343;SDS011;59146;43.850;25.948;2023-06-22T06:54:57;16.98;;;10.68;;
71343;SDS011;59146;43.850;25.948;2023-06-22T06:57:23;13.75;;;10.43;;
71343;SDS011;59146;43.850;25.948;2023-06-22T06:59:49;9.70;;;6.80;;
71343;SDS011;59146;43.850;25.948;2023-06-22T07:02:15;19.20;;;10.13;;
71343;SDS011;59146;43.850;25.948;2023-06-22T07:04:41;13.73;;;11.90;;
71343;SDS011;59146;43.850;25.948;2023-06-22T07:07:06;14.85;;;9.90;;
71343;SDS011;59146;43.850;25.948;2023-06-22T07:09:32;14.88;;;9.75;;
71343;SDS011;59146;43.850;25.948;2023-06-22T07:11:57;15.85;;;9.80;;
71343;SDS011;59146;43.850;25.948;2023-06-22T07:14:23;8.57;;;6.93;;
71343;SDS011;59146;43.850;25.948;2023-06-22T07:16:48;15.65;;;9.20;;
71343;SDS011;59146;43.850;25.948;2023-06-22T07:19:14;12.88;;;9.82;;
71343;SDS011;59146;43.850;25.948;2023-06-22T07:21:39;12.98;;;9.45;;
71343;SDS011;59146;43.850;25.948;2023-06-22T07:24:05;11.65;;;8.02;;
71343;SDS011;59146;43.850;25.948;2023-06-22T07:26:32;8.05;;;7.25;;
71343;SDS011;59146;43.850;25.948;2023-06-22T07:28:57;12.35;;;8.80;;
71343;SDS011;59146;43.850;25.948;2023-06-22T07:31:24;11.02;;;8.38;;
71343;SDS011;59146;43.850;25.948;2023-06-22T07:33:50;9.50;;;6.93;;
71343;SDS011;59146;43.850;25.948;2023-06-22T07:36:16;12.43;;;6.90;;
71343;SDS011;59146;43.850;25.948;2023-06-22T07:38:42;12.00;;;7.28;;
71343;SDS011;59146;43.850;25.948;2023-06-22T07:41:08;8.80;;;6.28;;
71343;SDS011;59146;43.850;25.948;2023-06-22T07:43:33;8.25;;;5.90;;
71343;SDS011;59146;43.850;25.948;2023-06-22T07:46:02;6.53;;;5.93;;
71343;SDS011;59146;43.850;25.948;2023-06-22T07:48:28;13.20;;;7.10;;
71343;SDS011;59146;43.850;25.948;2023-06-22T07:50:53;6.35;;;5.75;;
71343;SDS011;59146;43.850;25.948;2023-06-22T07:53:20;7.22;;;5.85;;
71343;SDS011;59146;43.850;25.948;2023-06-22T07:55:45;8.70;;;6.25;;
71343;SDS011;59146;43.850;25.948;2023-06-22T07:58:11;9.18;;;6.88;;
71343;SDS011;59146;43.850;25.948;2023-06-22T08:00:36;17.92;;;7.35;;
71343;SDS011;59146;43.850;25.948;2023-06-22T08:03:02;13.40;;;7.15;;
71343;SDS011;59146;43.850;25.948;2023-06-22T08:05:30;17.75;;;6.32;;
71343;SDS011;59146;43.850;25.948;2023-06-22T08:07:56;7.65;;;6.50;;
71343;SDS011;59146;43.850;25.948;2023-06-22T08:10:21;9.32;;;7.45;;
71343;SDS011;59146;43.850;25.948;2023-06-22T08:12:47;8.75;;;7.60;;
71343;SDS011;59146;43.850;25.948;2023-06-22T08:15:12;12.90;;;8.20;;
71343;SDS011;59146;43.850;25.948;2023-06-22T08:17:38;11.57;;;7.65;;
71343;SDS011;59146;43.850;25.948;2023-06-22T08:20:04;7.80;;;7.00;;
71343;SDS011;59146;43.850;25.948;2023-06-22T08:22:40;8.82;;;7.03;;
71343;SDS011;59146;43.850;25.948;2023-06-22T08:25:07;7.88;;;6.75;;
71343;SDS011;59146;43.850;25.948;2023-06-22T08:27:33;10.63;;;7.60;;
71343;SDS011;59146;43.850;25.948;2023-06-22T08:29:59;14.18;;;7.00;;
71343;SDS011;59146;43.850;25.948;2023-06-22T08:32:25;16.42;;;8.07;;
71343;SDS011;59146;43.850;25.948;2023-06-22T08:34:54;12.40;;;7.13;;
71343;SDS011;59146;43.850;25.948;2023-06-22T08:37:21;10.60;;;7.40;;
71343;SDS011;59146;43.850;25.948;2023-06-22T08:39:49;13.13;;;6.78;;
71343;SDS011;59146;43.850;25.948;2023-06-22T08:42:15;10.63;;;7.30;;
71343;SDS011;59146;43.850;25.948;2023-06-22T08:44:41;8.13;;;7.32;;
71343;SDS011;59146;43.850;25.948;2023-06-22T08:47:06;9.23;;;6.45;;
71343;SDS011;59146;43.850;25.948;2023-06-22T08:49:32;11.57;;;6.72;;
71343;SDS011;59146;43.850;25.948;2023-06-22T08:51:57;8.93;;;7.30;;
71343;SDS011;59146;43.850;25.948;2023-06-22T08:54:23;13.40;;;7.63;;
71343;SDS011;59146;43.850;25.948;2023-06-22T08:56:48;9.18;;;7.28;;
71343;SDS011;59146;43.850;25.948;2023-06-22T08:59:14;11.50;;;7.55;;
71343;SDS011;59146;43.850;25.948;2023-06-22T09:01:39;12.10;;;7.80;;
71343;SDS011;59146;43.850;25.948;2023-06-22T09:04:05;10.93;;;7.53;;
71343;SDS011;59146;43.850;25.948;2023-06-22T09:06:32;11.70;;;7.53;;
71343;SDS011;59146;43.850;25.948;2023-06-22T09:08:58;10.27;;;7.38;;
71343;SDS011;59146;43.850;25.948;2023-06-22T09:11:27;12.73;;;8.45;;
71343;SDS011;59146;43.850;25.948;2023-06-22T09:13:52;11.32;;;8.25;;
71343;SDS011;59146;43.850;25.948;2023-06-22T09:16:21;9.43;;;7.50;;
71343;SDS011;59146;43.850;25.948;2023-06-22T09:18:47;8.18;;;7.35;;
71343;SDS011;59146;43.850;25.948;2023-06-22T09:21:13;12.10;;;6.68;;
71343;SDS011;59146;43.850;25.948;2023-06-22T09:23:39;8.93;;;6.13;;
71343;SDS011;59146;43.850;25.948;2023-06-22T09:26:04;12.82;;;6.63;;
71343;SDS011;59146;43.850;25.948;2023-06-22T09:28:30;7.68;;;6.88;;
71343;SDS011;59146;43.850;25.948;2023-06-22T09:30:56;7.75;;;7.05;;
71343;SDS011;59146;43.850;25.948;2023-06-22T09:33:23;11.85;;;6.75;;
71343;SDS011;59146;43.850;25.948;2023-06-22T09:35:49;8.25;;;7.38;;
71343;SDS011;59146;43.850;25.948;2023-06-22T09:38:16;8.25;;;7.05;;
71343;SDS011;59146;43.850;25.948;2023-06-22T09:40:41;8.38;;;6.75;;
71343;SDS011;59146;43.850;25.948;2023-06-22T09:43:09;9.63;;;6.88;;
71343;SDS011;59146;43.850;25.948;2023-06-22T09:45:36;10.43;;;7.38;;
71343;SDS011;59146;43.850;25.948;2023-06-22T09:48:02;7.00;;;6.30;;
71343;SDS011;59146;43.850;25.948;2023-06-22T09:50:27;11.63;;;7.88;;
71343;SDS011;59146;43.850;25.948;2023-06-22T09:52:53;10.23;;;6.63;;
71343;SDS011;59146;43.850;25.948;2023-06-22T09:55:22;8.98;;;6.30;;
71343;SDS011;59146;43.850;25.948;2023-06-22T09:57:48;7.38;;;6.60;;
71343;SDS011;59146;43.850;25.948;2023-06-22T10:00:15;8.85;;;6.70;;
71343;SDS011;59146;43.850;25.948;2023-06-22T10:02:42;7.85;;;6.57;;
71343;SDS011;59146;43.850;25.948;2023-06-22T10:05:07;7.93;;;6.70;;
71343;SDS011;59146;43.850;25.948;2023-06-22T10:07:33;6.88;;;6.22;;
71343;SDS011;59146;43.850;25.948;2023-06-22T10:09:58;10.20;;;6.45;;
71343;SDS011;59146;43.850;25.948;2023-06-22T10:12:25;12.40;;;7.03;;
71343;SDS011;59146;43.850;25.948;2023-06-22T10:14:52;7.97;;;6.80;;
71343;SDS011;59146;43.850;25.948;2023-06-22T10:17:17;8.35;;;6.65;;
71343;SDS011;59146;43.850;25.948;2023-06-22T10:19:43;8.27;;;6.68;;
71343;SDS011;59146;43.850;25.948;2023-06-22T10:22:08;9.35;;;6.22;;
71343;SDS011;59146;43.850;25.948;2023-06-22T10:24:34;8.25;;;6.47;;
71343;SDS011;59146;43.850;25.948;2023-06-22T10:26:59;7.22;;;6.30;;
71343;SDS011;59146;43.850;25.948;2023-06-22T10:29:25;7.60;;;6.25;;
71343;SDS011;59146;43.850;25.948;2023-06-22T10:31:50;11.90;;;7.47;;
71343;SDS011;59146;43.850;25.948;2023-06-22T10:34:16;8.60;;;6.55;;
71343;SDS011;59146;43.850;25.948;2023-06-22T10:36:41;11.07;;;5.68;;
71343;SDS011;59146;43.850;25.948;2023-06-22T10:39:07;9.68;;;6.20;;
71343;SDS011;59146;43.850;25.948;2023-06-22T10:41:32;7.47;;;6.38;;
71343;SDS011;59146;43.850;25.948;2023-06-22T10:43:57;11.65;;;6.38;;
71343;SDS011;59146;43.850;25.948;2023-06-22T10:46:26;8.10;;;6.45;;
71343;SDS011;59146;43.850;25.948;2023-06-22T10:48:52;9.70;;;6.72;;
71343;SDS011;59146;43.850;25.948;2023-06-22T10:51:22;7.15;;;6.40;;
71343;SDS011;59146;43.850;25.948;2023-06-22T10:53:47;10.05;;;6.55;;
71343;SDS011;59146;43.850;25.948;2023-06-22T10:56:12;8.73;;;6.50;;
71343;SDS011;59146;43.850;25.948;2023-06-22T10:58:38;13.13;;;6.18;;
71343;SDS011;59146;43.850;25.948;2023-06-22T11:01:03;16.35;;;6.95;;
71343;SDS011;59146;43.850;25.948;2023-06-22T11:03:29;5.85;;;5.35;;
71343;SDS011;59146;43.850;25.948;2023-06-22T11:05:54;9.70;;;5.90;;
71343;SDS011;59146;43.850;25.948;2023-06-22T11:08:19;8.07;;;6.40;;
71343;SDS011;59146;43.850;25.948;2023-06-22T11:10:45;9.10;;;6.70;;
71343;SDS011;59146;43.850;25.948;2023-06-22T11:13:10;7.18;;;6.45;;
71343;SDS011;59146;43.850;25.948;2023-06-22T11:15:36;7.18;;;5.82;;
71343;SDS011;59146;43.850;25.948;2023-06-22T11:18:02;7.00;;;6.30;;
71343;SDS011;59146;43.850;25.948;2023-06-22T11:20:27;9.70;;;6.30;;
71343;SDS011;59146;43.850;25.948;2023-06-22T11:22:55;6.22;;;5.20;;
71343;SDS011;59146;43.850;25.948;2023-06-22T11:25:20;8.70;;;6.20;;
71343;SDS011;59146;43.850;25.948;2023-06-22T11:27:46;8.70;;;5.70;;
71343;SDS011;59146;43.850;25.948;2023-06-22T11:30:11;6.72;;;6.03;;
71343;SDS011;59146;43.850;25.948;2023-06-22T11:32:36;11.93;;;6.25;;
71343;SDS011;59146;43.850;25.948;2023-06-22T11:35:02;7.45;;;5.55;;
71343;SDS011;59146;43.850;25.948;2023-06-22T11:37:28;7.25;;;5.97;;
71343;SDS011;59146;43.850;25.948;2023-06-22T11:39:53;7.35;;;5.97;;
71343;SDS011;59146;43.850;25.948;2023-06-22T11:42:21;7.65;;;5.78;;
71343;SDS011;59146;43.850;25.948;2023-06-22T11:44:48;8.95;;;6.70;;
71343;SDS011;59146;43.850;25.948;2023-06-22T11:47:14;10.02;;;6.28;;
71343;SDS011;59146;43.850;25.948;2023-06-22T11:49:39;7.35;;;6.35;;
71343;SDS011;59146;43.850;25.948;2023-06-22T11:52:05;7.45;;;6.25;;
71343;SDS011;59146;43.850;25.948;2023-06-22T11:54:31;6.50;;;5.90;;
71343;SDS011;59146;43.850;25.948;2023-06-22T11:56:56;6.85;;;6.03;;
71343;SDS011;59146;43.850;25.948;2023-06-22T11:59:21;7.28;;;6.25;;
71343;SDS011;59146;43.850;25.948;2023-06-22T12:05:08;9.70;;;6.68;;
71343;SDS011;59146;43.850;25.948;2023-06-22T12:07:34;10.00;;;6.18;;
71343;SDS011;59146;43.850;25.948;2023-06-22T12:09:59;6.95;;;6.22;;
71343;SDS011;59146;43.850;25.948;2023-06-22T12:12:25;10.57;;;5.97;;
71343;SDS011;59146;43.850;25.948;2023-06-22T12:14:51;9.27;;;6.22;;
71343;SDS011;59146;43.850;25.948;2023-06-22T12:17:16;9.68;;;6.05;;
71343;SDS011;59146;43.850;25.948;2023-06-22T12:19:42;9.27;;;6.28;;
71343;SDS011;59146;43.850;25.948;2023-06-22T12:22:07;7.30;;;6.13;;
71343;SDS011;59146;43.850;25.948;2023-06-22T12:24:32;6.70;;;6.10;;
71343;SDS011;59146;43.850;25.948;2023-06-22T12:26:58;8.48;;;6.90;;
71343;SDS011;59146;43.850;25.948;2023-06-22T12:29:23;10.65;;;6.78;;
71343;SDS011;59146;43.850;25.948;2023-06-22T12:31:49;11.48;;;6.68;;
71343;SDS011;59146;43.850;25.948;2023-06-22T12:34:14;7.85;;;6.53;;
71343;SDS011;59146;43.850;25.948;2023-06-22T12:36:48;8.02;;;5.85;;
71343;SDS011;59146;43.850;25.948;2023-06-22T12:39:14;8.25;;;6.45;;
71343;SDS011;59146;43.850;25.948;2023-06-22T12:41:40;6.25;;;5.63;;
71343;SDS011;59146;43.850;25.948;2023-06-22T12:44:05;7.57;;;6.32;;
71343;SDS011;59146;43.850;25.948;2023-06-22T12:46:31;8.55;;;7.00;;
71343;SDS011;59146;43.850;25.948;2023-06-22T12:49:02;12.45;;;6.45;;
71343;SDS011;59146;43.850;25.948;2023-06-22T12:51:29;7.50;;;6.20;;
71343;SDS011;59146;43.850;25.948;2023-06-22T12:53:54;8.23;;;6.43;;
71343;SDS011;59146;43.850;25.948;2023-06-22T12:56:20;8.25;;;5.80;;
71343;SDS011;59146;43.850;25.948;2023-06-22T12:58:49;10.80;;;6.45;;
71343;SDS011;59146;43.850;25.948;2023-06-22T13:01:14;11.25;;;6.65;;
71343;SDS011;59146;43.850;25.948;2023-06-22T13:03:41;7.72;;;6.97;;
71343;SDS011;59146;43.850;25.948;2023-06-22T13:06:09;9.80;;;6.55;;
71343;SDS011;59146;43.850;25.948;2023-06-22T13:08:40;9.73;;;6.55;;
71343;SDS011;59146;43.850;25.948;2023-06-22T13:11:08;8.02;;;7.00;;
71343;SDS011;59146;43.850;25.948;2023-06-22T13:13:33;7.72;;;6.93;;
71343;SDS011;59146;43.850;25.948;2023-06-22T13:15:59;9.20;;;6.50;;
71343;SDS011;59146;43.850;25.948;2023-06-22T13:18:24;14.02;;;6.25;;
71343;SDS011;59146;43.850;25.948;2023-06-22T13:20:50;11.75;;;7.75;;
71343;SDS011;59146;43.850;25.948;2023-06-22T13:23:15;11.93;;;7.75;;
71343;SDS011;59146;43.850;25.948;2023-06-22T13:25:40;11.95;;;7.75;;
71343;SDS011;59146;43.850;25.948;2023-06-22T13:28:06;12.63;;;7.43;;
71343;SDS011;59146;43.850;25.948;2023-06-22T13:30:32;8.63;;;6.72;;
71343;SDS011;59146;43.850;25.948;2023-06-22T13:33:00;10.73;;;6.93;;
71343;SDS011;59146;43.850;25.948;2023-06-22T13:35:26;10.63;;;6.63;;
71343;SDS011;59146;43.850;25.948;2023-06-22T13:37:51;9.43;;;7.20;;
71343;SDS011;59146;43.850;25.948;2023-06-22T13:40:24;11.30;;;7.47;;
71343;SDS011;59146;43.850;25.948;2023-06-22T13:42:53;11.75;;;6.97;;
71343;SDS011;59146;43.850;25.948;2023-06-22T13:45:18;12.57;;;6.88;;
71343;SDS011;59146;43.850;25.948;2023-06-22T13:47:45;15.52;;;7.88;;
71343;SDS011;59146;43.850;25.948;2023-06-22T13:50:10;14.60;;;6.90;;
71343;SDS011;59146;43.850;25.948;2023-06-22T13:52:37;10.73;;;7.28;;
71343;SDS011;59146;43.850;25.948;2023-06-22T13:55:03;12.00;;;8.57;;
71343;SDS011;59146;43.850;25.948;2023-06-22T13:57:29;8.27;;;7.10;;
71343;SDS011;59146;43.850;25.948;2023-06-22T13:59:59;8.40;;;6.93;;
71343;SDS011;59146;43.850;25.948;2023-06-22T14:02:25;7.40;;;6.68;;
71343;SDS011;59146;43.850;25.948;2023-06-22T14:04:51;7.55;;;6.47;;
71343;SDS011;59146;43.850;25.948;2023-06-22T14:07:16;10.93;;;7.40;;
71343;SDS011;59146;43.850;25.948;2023-06-22T14:09:44;12.32;;;7.05;;
71343;SDS011;59146;43.850;25.948;2023-06-22T14:12:10;11.85;;;7.93;;
71343;SDS011;59146;43.850;25.948;2023-06-22T14:14:35;10.05;;;7.15;;
71343;SDS011;59146;43.850;25.948;2023-06-22T14:17:01;9.52;;;7.25;;
71343;SDS011;59146;43.850;25.948;2023-06-22T14:19:26;11.07;;;7.22;;
71343;SDS011;59146;43.850;25.948;2023-06-22T14:21:52;16.27;;;7.35;;
71343;SDS011;59146;43.850;25.948;2023-06-22T14:24:17;12.32;;;7.50;;
71343;SDS011;59146;43.850;25.948;2023-06-22T14:26:43;12.75;;;7.10;;
71343;SDS011;59146;43.850;25.948;2023-06-22T14:29:08;11.35;;;7.38;;
71343;SDS011;59146;43.850;25.948;2023-06-22T14:31:33;13.93;;;7.65;;